Time;durP1;ratioP1;P1;durP2;ratioP2;P2;SDS_P1;SDS_P2;PMS_P1;PMS_P2;Temp;Humidity;BMP_temperature;BMP_pressure;BME280_temperature;BME280_humidity;BME280_pressure;Samples;Min_cycle;Max_cycle;Signal;HPM_P1;HPM_P2
2021/08/02 00:01:25;;;;;;;3.73;3.43;;;15.50;99.90;;;;;;4994301;28;20414;-66
2021/08/02 00:03:56;;;;;;;3.37;3.07;;;15.50;99.90;;;;;;4994305;28;20507;-67
2021/08/02 00:06:23;;;;;;;4.17;3.60;;;15.60;99.90;;;;;;4994379;28;20411;-65
2021/08/02 00:08:56;;;;;;;4.13;3.73;;;15.60;99.90;;;;;;4993657;28;20442;-66
2021/08/02 00:11:31;;;;;;;4.70;4.00;;;15.70;99.90;;;;;;4994098;28;20505;-66
2021/08/02 00:13:58;;;;;;;3.70;3.40;;;15.50;99.90;;;;;;4994025;28;20417;-66
2021/08/02 00:16:23;;;;;;;6.27;3.90;;;15.30;99.90;;;;;;4994010;28;20498;-65
2021/08/02 00:18:49;;;;;;;3.60;3.30;;;15.20;99.90;;;;;;4993573;28;20550;-66
2021/08/02 00:21:15;;;;;;;7.00;4.40;;;15.10;99.90;;;;;;4993948;28;20538;-65
2021/08/02 00:23:41;;;;;;;4.07;3.77;;;15.10;99.90;;;;;;4993805;28;20274;-65
2021/08/02 00:26:09;;;;;;;4.00;3.67;;;15.10;99.90;;;;;;4994122;28;20184;-66
2021/08/02 00:28:35;;;;;;;3.97;3.67;;;15.20;99.90;;;;;;4993533;28;20477;-65
2021/08/02 00:31:02;;;;;;;4.90;3.50;;;15.20;99.90;;;;;;4993590;28;20810;-65
2021/08/02 00:33:27;;;;;;;5.47;3.30;;;15.20;99.90;;;;;;4993692;28;20423;-66
2021/08/02 00:36:31;;;;;;;5.17;3.70;;;15.20;99.90;;;;;;4994162;28;21038;-65
2021/08/02 00:39:05;;;;;;;3.70;3.30;;;15.30;99.90;;;;;;4987644;28;20315;-65
2021/08/02 00:42:18;;;;;;;3.40;3.10;;;15.30;99.90;;;;;;4993572;28;20494;-65
2021/08/02 00:44:53;;;;;;;4.13;3.40;;;15.20;99.90;;;;;;4993431;28;20438;-67
2021/08/02 00:47:22;;;;;;;4.83;3.20;;;15.20;99.90;;;;;;4993694;28;20508;-65
2021/08/02 00:49:55;;;;;;;4.10;3.47;;;15.30;99.90;;;;;;4993041;28;20443;-65
2021/08/02 00:52:23;;;;;;;3.80;3.50;;;15.30;99.90;;;;;;4993812;28;20450;-65
2021/08/02 00:54:50;;;;;;;4.17;3.20;;;15.40;99.90;;;;;;4993455;28;20931;-66
2021/08/02 00:57:19;;;;;;;4.70;3.60;;;15.40;99.90;;;;;;4986420;28;20510;-66
2021/08/02 00:59:45;;;;;;;3.50;3.20;;;15.30;99.90;;;;;;4972869;28;20491;-65
2021/08/02 01:02:11;;;;;;;3.80;3.43;;;15.40;99.90;;;;;;4973854;28;20796;-65
2021/08/02 01:04:38;;;;;;;4.57;3.70;;;15.50;99.90;;;;;;4973755;28;20789;-66
2021/08/02 01:07:08;;;;;;;3.40;3.10;;;15.50;99.90;;;;;;4973721;28;20415;-66
2021/08/02 01:09:36;;;;;;;3.97;3.00;;;15.60;99.90;;;;;;4973130;28;20462;-66
2021/08/02 01:12:03;;;;;;;3.90;2.93;;;15.70;99.90;;;;;;4973728;28;20423;-65
2021/08/02 01:14:30;;;;;;;3.80;3.50;;;15.70;99.90;;;;;;4973442;28;20466;-66
2021/08/02 01:16:57;;;;;;;3.40;3.10;;;15.70;99.90;;;;;;4973583;28;20427;-66
2021/08/02 01:19:23;;;;;;;2.90;2.70;;;15.70;99.90;;;;;;4973144;28;20459;-65
2021/08/02 01:21:49;;;;;;;3.27;3.03;;;15.70;99.90;;;;;;4973504;28;20797;-65
2021/08/02 01:24:16;;;;;;;3.30;3.07;;;15.80;99.90;;;;;;4973342;28;20427;-65
2021/08/02 01:26:44;;;;;;;4.07;3.27;;;15.80;99.90;;;;;;4972147;28;20420;-65
2021/08/02 01:29:48;;;;;;;4.03;3.63;;;15.90;99.90;;;;;;4972952;28;20439;-66
2021/08/02 01:32:15;;;;;;;2.90;2.70;;;15.90;99.90;;;;;;4973382;28;20422;-65
2021/08/02 01:34:41;;;;;;;3.10;2.90;;;15.80;99.90;;;;;;4973207;28;20446;-66
2021/08/02 01:37:06;;;;;;;2.90;2.70;;;15.80;99.90;;;;;;4973241;28;20428;-67
2021/08/02 01:39:35;;;;;;;3.40;3.20;;;15.80;99.90;;;;;;4972854;28;20467;-65
2021/08/02 01:42:03;;;;;;;3.33;3.07;;;15.90;99.90;;;;;;4973219;28;20176;-65
2021/08/02 01:44:29;;;;;;;3.97;3.00;;;15.80;99.90;;;;;;4973129;28;20917;-67
2021/08/02 01:47:08;;;;;;;3.63;3.30;;;15.70;99.90;;;;;;4973114;28;20419;-65
2021/08/02 01:49:58;;;;;;;6.13;3.40;;;15.60;99.90;;;;;;4972808;28;20207;-65
2021/08/02 01:52:31;;;;;;;4.30;3.87;;;15.60;99.90;;;;;;4973208;28;20435;-65
2021/08/02 01:55:03;;;;;;;4.57;3.37;;;15.50;99.90;;;;;;4973189;28;20459;-65
2021/08/02 01:57:34;;;;;;;4.60;3.67;;;15.40;99.90;;;;;;4981596;28;20510;-65
2021/08/02 02:00:09;;;;;;;4.77;3.30;;;15.50;99.90;;;;;;4992041;28;20589;-66
2021/08/02 02:02:37;;;;;;;4.20;3.90;;;15.40;99.90;;;;;;4992485;28;20441;-66
2021/08/02 02:05:09;;;;;;;4.63;3.90;;;15.40;99.90;;;;;;4992369;28;20944;-66
2021/08/02 02:08:16;;;;;;;3.97;3.60;;;15.50;99.90;;;;;;4992447;28;20417;-65
2021/08/02 02:10:47;;;;;;;3.03;2.77;;;15.60;99.90;;;;;;4992088;28;20536;-66
2021/08/02 02:13:20;;;;;;;4.87;3.63;;;15.60;99.90;;;;;;4994645;28;20407;-65
2021/08/02 02:15:49;;;;;;;3.87;3.27;;;15.60;99.90;;;;;;4996295;28;20423;-65
2021/08/02 02:18:17;;;;;;;4.50;4.10;;;15.70;99.90;;;;;;4995904;28;20462;-65
2021/08/02 02:20:44;;;;;;;4.33;3.73;;;15.80;99.90;;;;;;4995921;28;20446;-66
2021/08/02 02:23:12;;;;;;;3.73;3.43;;;15.60;99.90;;;;;;4996248;28;20941;-65
2021/08/02 02:25:39;;;;;;;5.33;3.63;;;15.70;99.90;;;;;;4996028;28;20472;-66
2021/08/02 02:28:04;;;;;;;3.60;3.30;;;15.80;99.90;;;;;;4994661;28;20427;-66
2021/08/02 02:30:30;;;;;;;3.17;2.97;;;15.80;99.90;;;;;;4995720;28;20443;-65
2021/08/02 02:32:57;;;;;;;4.70;3.27;;;15.90;99.90;;;;;;4995844;28;20179;-65
2021/08/02 02:35:24;;;;;;;4.30;3.30;;;15.80;99.90;;;;;;4995950;28;20954;-65
2021/08/02 02:37:51;;;;;;;4.37;3.63;;;15.90;99.90;;;;;;4995806;28;20505;-66
2021/08/02 02:40:17;;;;;;;4.67;3.33;;;15.90;99.90;;;;;;4995463;28;20439;-65
2021/08/02 02:42:44;;;;;;;3.80;3.27;;;15.90;99.90;;;;;;4995685;28;20414;-66
2021/08/02 02:45:10;;;;;;;4.00;3.37;;;15.80;99.90;;;;;;4995716;28;20924;-65
2021/08/02 02:47:36;;;;;;;3.57;3.27;;;15.70;99.90;;;;;;4995600;28;20425;-65
2021/08/02 02:50:04;;;;;;;3.80;3.57;;;15.50;99.90;;;;;;4995295;28;20814;-66
2021/08/02 02:52:30;;;;;;;3.60;3.30;;;15.40;99.90;;;;;;4995771;28;20176;-65
2021/08/02 02:54:58;;;;;;;3.43;3.13;;;15.50;99.90;;;;;;4995598;28;20492;-66
2021/08/02 02:57:24;;;;;;;3.40;3.10;;;15.40;99.90;;;;;;4987324;28;20424;-66
2021/08/02 02:59:49;;;;;;;4.33;3.47;;;15.40;99.90;;;;;;4975982;28;20498;-65
2021/08/02 03:02:17;;;;;;;4.03;3.00;;;15.40;99.90;;;;;;4975968;28;20822;-65
2021/08/02 03:04:45;;;;;;;4.00;3.60;;;15.40;99.90;;;;;;4975981;28;20232;-66
2021/08/02 03:07:13;;;;;;;3.63;3.33;;;15.50;99.90;;;;;;4975911;28;20416;-65
2021/08/02 03:09:41;;;;;;;3.50;3.30;;;15.60;99.90;;;;;;4975377;28;20467;-65
2021/08/02 03:12:08;;;;;;;4.50;3.77;;;15.60;99.90;;;;;;4975731;28;20426;-65
2021/08/02 03:14:34;;;;;;;4.10;3.03;;;15.60;99.90;;;;;;4975665;28;20786;-66
2021/08/02 03:16:59;;;;;;;4.00;3.30;;;15.70;99.90;;;;;;4975998;28;20995;-66
2021/08/02 03:19:25;;;;;;;2.97;2.73;;;15.70;99.90;;;;;;4975278;28;20541;-67
2021/08/02 03:21:52;;;;;;;7.40;4.87;;;15.70;99.90;;;;;;4975731;28;20800;-65
2021/08/02 03:24:27;;;;;;;3.33;3.07;;;15.70;99.90;;;;;;4975106;28;20320;-66
2021/08/02 03:26:59;;;;;;;3.90;3.60;;;15.60;99.90;;;;;;4975484;28;20415;-66
2021/08/02 03:29:34;;;;;;;3.90;3.50;;;15.60;99.90;;;;;;4975168;28;20442;-65
2021/08/02 03:32:05;;;;;;;3.47;3.20;;;15.70;99.90;;;;;;4975492;28;20417;-66
2021/08/02 03:34:33;;;;;;;4.90;2.90;;;15.70;99.90;;;;;;4974622;28;20428;-66
2021/08/02 03:37:01;;;;;;;3.93;3.30;;;15.80;99.90;;;;;;4974167;28;20439;-66
2021/08/02 03:39:28;;;;;;;3.30;3.00;;;15.80;99.90;;;;;;4974948;28;20467;-65
2021/08/02 03:41:55;;;;;;;4.43;3.30;;;15.80;99.90;;;;;;4975370;28;20803;-66
2021/08/02 03:44:21;;;;;;;4.67;4.27;;;15.70;99.90;;;;;;4975277;28;20781;-66
2021/08/02 03:46:47;;;;;;;3.27;3.07;;;15.50;99.90;;;;;;4975338;28;20846;-66
2021/08/02 03:49:13;;;;;;;4.33;3.93;;;15.40;99.90;;;;;;4975046;28;20474;-65
2021/08/02 03:51:59;;;;;;;3.90;3.60;;;15.50;99.90;;;;;;4975181;28;20186;-65
2021/08/02 03:54:28;;;;;;;4.67;3.23;;;15.40;99.90;;;;;;4975170;28;20419;-65
2021/08/02 03:56:56;;;;;;;3.93;3.53;;;15.40;99.90;;;;;;4979169;28;20433;-65
2021/08/02 03:59:23;;;;;;;3.70;3.40;;;15.30;99.90;;;;;;4992743;28;20902;-66
2021/08/02 04:01:49;;;;;;;4.70;3.30;;;15.30;99.90;;;;;;4994387;28;20939;-65
2021/08/02 04:04:15;;;;;;;3.50;3.20;;;15.30;99.90;;;;;;4994312;28;20422;-65
2021/08/02 04:06:40;;;;;;;4.57;3.10;;;15.20;99.90;;;;;;4994346;28;20168;-66
2021/08/02 04:09:08;;;;;;;5.93;3.57;;;15.30;99.90;;;;;;4994172;28;20222;-67
2021/08/02 04:11:34;;;;;;;4.43;3.60;;;15.30;99.90;;;;;;4994282;28;20204;-66
2021/08/02 04:14:00;;;;;;;4.70;3.23;;;15.30;99.90;;;;;;4994173;28;20450;-66
2021/08/02 04:16:25;;;;;;;3.53;3.27;;;15.30;99.90;;;;;;4994101;28;20485;-67
2021/08/02 04:18:52;;;;;;;3.70;3.40;;;15.40;99.90;;;;;;4993663;28;20271;-67
2021/08/02 04:21:17;;;;;;;3.77;3.10;;;15.40;99.90;;;;;;4994073;28;20195;-66
2021/08/02 04:23:44;;;;;;;3.00;2.80;;;15.50;99.90;;;;;;4993886;28;20458;-66
2021/08/02 04:26:12;;;;;;;4.23;3.57;;;15.70;99.90;;;;;;4993858;28;20167;-67
2021/08/02 04:28:42;;;;;;;4.60;4.20;;;15.70;99.90;;;;;;4993657;28;20826;-67
2021/08/02 04:31:09;;;;;;;5.47;3.07;;;15.80;99.90;;;;;;4993824;28;20438;-67
2021/08/02 04:33:35;;;;;;;3.67;3.30;;;15.80;99.90;;;;;;4993813;28;20434;-68
2021/08/02 04:36:01;;;;;;;3.07;2.87;;;15.90;99.90;;;;;;4992969;28;20429;-67
2021/08/02 04:38:26;;;;;;;3.23;2.73;;;15.80;99.90;;;;;;4992356;28;20808;-67
2021/08/02 04:40:52;;;;;;;5.57;3.20;;;15.90;99.90;;;;;;4974235;28;20231;-67
2021/08/02 04:43:17;;;;;;;4.10;3.07;;;15.90;99.90;;;;;;4974238;28;20184;-67
2021/08/02 04:45:43;;;;;;;5.67;3.37;;;15.90;99.90;;;;;;4972895;28;20656;-67
2021/08/02 04:48:08;;;;;;;4.63;3.10;;;16.10;99.90;;;;;;4974106;28;20659;-67
2021/08/02 04:50:34;;;;;;;5.73;5.27;;;16.00;99.90;;;;;;4973794;28;20204;-67
2021/08/02 04:53:00;;;;;;;3.47;3.10;;;15.90;99.90;;;;;;4973981;28;20601;-67
2021/08/02 04:55:25;;;;;;;4.03;2.70;;;15.80;99.90;;;;;;4974040;28;20596;-67
2021/08/02 04:57:51;;;;;;;3.30;3.00;;;15.70;99.90;;;;;;4985520;28;20657;-67
2021/08/02 05:00:16;;;;;;;4.07;3.60;;;15.80;99.90;;;;;;4992961;28;20266;-67
2021/08/02 05:02:42;;;;;;;7.60;3.87;;;15.90;99.90;;;;;;4983451;28;20194;-67
2021/08/02 05:05:08;;;;;;;3.20;3.00;;;16.00;99.90;;;;;;4978936;28;20566;-67
2021/08/02 05:07:33;;;;;;;4.30;3.90;;;16.10;99.90;;;;;;4993142;28;20250;-67
2021/08/02 05:09:59;;;;;;;4.07;3.73;;;16.20;99.90;;;;;;4984873;28;20542;-66
2021/08/02 05:12:25;;;;;;;5.30;3.20;;;16.20;99.90;;;;;;4991187;28;20206;-67
2021/08/02 05:14:50;;;;;;;4.10;3.80;;;16.10;99.90;;;;;;4998486;28;20179;-67
2021/08/02 05:17:16;;;;;;;3.27;2.90;;;16.10;99.90;;;;;;4994031;28;20184;-66
2021/08/02 05:19:41;;;;;;;4.50;3.40;;;16.20;99.90;;;;;;5012242;28;20614;-67
2021/08/02 05:22:07;;;;;;;4.13;3.07;;;16.20;99.90;;;;;;5004984;28;20288;-67
2021/08/02 05:24:33;;;;;;;3.43;3.13;;;16.20;99.90;;;;;;4992833;28;20230;-66
2021/08/02 05:26:59;;;;;;;3.17;2.63;;;16.20;99.90;;;;;;4992904;28;20183;-65
2021/08/02 05:29:25;;;;;;;5.07;4.03;;;16.20;99.90;;;;;;4992512;28;20198;-67
2021/08/02 05:31:50;;;;;;;3.60;3.30;;;16.30;99.90;;;;;;4992832;28;20422;-67
2021/08/02 05:34:16;;;;;;;4.33;3.93;;;16.20;99.90;;;;;;4992736;28;20234;-67
2021/08/02 05:36:42;;;;;;;5.33;4.10;;;16.30;99.90;;;;;;5003390;28;20230;-67
2021/08/02 05:39:08;;;;;;;6.30;5.70;;;16.30;99.90;;;;;;5011900;28;20282;-66
2021/08/02 05:41:34;;;;;;;4.07;3.77;;;16.00;99.90;;;;;;5010830;28;20565;-67
2021/08/02 05:44:00;;;;;;;4.40;3.40;;;15.90;99.90;;;;;;4999864;28;20421;-67
2021/08/02 05:46:25;;;;;;;3.80;3.43;;;15.90;99.90;;;;;;5000318;28;20613;-67
2021/08/02 05:48:51;;;;;;;3.37;3.07;;;15.90;99.90;;;;;;4998760;28;20183;-66
2021/08/02 05:51:16;;;;;;;3.10;2.90;;;16.10;99.90;;;;;;5001188;28;20183;-66
2021/08/02 05:53:42;;;;;;;4.67;4.30;;;16.10;99.90;;;;;;4997983;28;20184;-67
2021/08/02 05:56:09;;;;;;;4.40;3.80;;;16.20;99.90;;;;;;5000844;28;20178;-67
2021/08/02 05:58:34;;;;;;;4.10;3.67;;;16.20;99.90;;;;;;4999555;28;20196;-67
2021/08/02 06:01:00;;;;;;;2.97;2.77;;;16.10;99.90;;;;;;4980654;28;21029;-67
2021/08/02 06:03:25;;;;;;;9.20;6.13;;;16.00;99.90;;;;;;5002788;28;20171;-67
2021/08/02 06:05:51;;;;;;;2.73;2.53;;;16.10;99.90;;;;;;4992407;28;20564;-67
2021/08/02 06:08:16;;;;;;;4.60;3.00;;;16.20;99.90;;;;;;5007953;28;20207;-67
2021/08/02 06:10:42;;;;;;;6.30;3.50;;;16.40;99.90;;;;;;5005511;28;20207;-67
2021/08/02 06:13:07;;;;;;;4.83;3.53;;;16.50;99.90;;;;;;4991165;28;20175;-67
2021/08/02 06:15:33;;;;;;;4.10;3.20;;;16.70;99.90;;;;;;4992423;28;20188;-67
2021/08/02 06:17:58;;;;;;;5.90;3.00;;;16.80;99.90;;;;;;4991922;28;20274;-67
2021/08/02 06:20:24;;;;;;;2.50;2.30;;;16.90;99.90;;;;;;4991806;28;20199;-66
2021/08/02 06:22:49;;;;;;;2.80;2.60;;;16.90;99.90;;;;;;4990149;28;20237;-67
2021/08/02 06:25:15;;;;;;;7.77;2.90;;;16.80;99.90;;;;;;4972956;28;20183;-68
2021/08/02 06:27:40;;;;;;;3.37;2.40;;;16.70;99.90;;;;;;4972948;28;20305;-67
2021/08/02 06:30:07;;;;;;;4.57;2.80;;;16.80;99.90;;;;;;4972503;28;20577;-67
2021/08/02 06:32:32;;;;;;;2.87;2.67;;;16.90;99.90;;;;;;4975641;28;20250;-66
2021/08/02 06:34:58;;;;;;;2.93;2.73;;;17.10;99.90;;;;;;4986098;28;20470;-66
2021/08/02 06:37:24;;;;;;;5.80;2.80;;;17.20;99.90;;;;;;4992259;28;20254;-67
2021/08/02 06:39:50;;;;;;;3.10;2.90;;;17.50;99.90;;;;;;4983651;28;20609;-68
2021/08/02 06:42:16;;;;;;;3.40;3.20;;;17.70;99.90;;;;;;4972780;28;20459;-67
2021/08/02 06:44:42;;;;;;;2.53;2.43;;;17.80;99.90;;;;;;4972812;28;20416;-66
2021/08/02 06:47:08;;;;;;;5.20;2.50;;;18.00;99.90;;;;;;4981267;28;20673;-67
2021/08/02 06:49:33;;;;;;;2.73;2.53;;;17.70;99.90;;;;;;4981316;28;20589;-67
2021/08/02 06:51:59;;;;;;;4.93;3.10;;;17.50;99.90;;;;;;4977801;28;20639;-67
2021/08/02 06:54:24;;;;;;;11.40;5.30;;;17.40;99.90;;;;;;4965712;28;20195;-64
2021/08/02 06:56:50;;;;;;;3.20;3.00;;;17.70;99.90;;;;;;4973660;28;20180;-67
2021/08/02 06:59:15;;;;;;;6.90;2.73;;;17.40;99.90;;;;;;4992334;28;20562;-68
2021/08/02 07:01:41;;;;;;;4.23;2.63;;;17.50;99.90;;;;;;4991070;28;20210;-67
2021/08/02 07:04:06;;;;;;;8.20;2.90;;;17.50;99.90;;;;;;4990681;28;20176;-67
2021/08/02 07:06:32;;;;;;;4.43;2.70;;;17.60;99.90;;;;;;4984359;28;20543;-68
2021/08/02 07:08:58;;;;;;;3.03;2.67;;;17.70;99.90;;;;;;4994470;28;20299;-66
2021/08/02 07:11:24;;;;;;;4.53;2.77;;;17.60;99.90;;;;;;4995716;28;20187;-67
2021/08/02 07:13:50;;;;;;;4.60;2.97;;;17.70;99.90;;;;;;4984355;28;20834;-67
2021/08/02 07:16:16;;;;;;;2.83;2.63;;;17.70;99.90;;;;;;4995026;28;20513;-67
2021/08/02 07:18:41;;;;;;;2.90;2.70;;;17.80;99.90;;;;;;4989332;28;20196;-67
2021/08/02 07:21:07;;;;;;;3.53;2.47;;;18.10;99.90;;;;;;4975809;28;20215;-67
2021/08/02 07:23:32;;;;;;;5.20;3.03;;;18.10;99.90;;;;;;4979440;28;20214;-67
2021/08/02 07:25:58;;;;;;;4.40;2.93;;;18.10;99.90;;;;;;4995016;28;20172;-67
2021/08/02 07:28:24;;;;;;;3.20;2.30;;;18.20;99.90;;;;;;4994922;28;20167;-67
2021/08/02 07:30:49;;;;;;;2.57;2.37;;;18.20;99.90;;;;;;4994876;28;20236;-67
2021/08/02 07:33:15;;;;;;;5.30;3.07;;;18.50;99.90;;;;;;4991007;28;20211;-67
2021/08/02 07:35:41;;;;;;;2.73;2.53;;;18.90;99.90;;;;;;4994857;28;20254;-67
2021/08/02 07:38:06;;;;;;;3.57;2.63;;;18.80;99.90;;;;;;4994646;28;20753;-67
2021/08/02 07:40:32;;;;;;;4.03;2.43;;;18.90;99.90;;;;;;4991784;28;20206;-65
2021/08/02 07:42:57;;;;;;;2.90;2.60;;;18.90;99.90;;;;;;4986628;28;20276;-67
2021/08/02 07:45:23;;;;;;;3.40;2.60;;;18.80;99.90;;;;;;4990586;28;20174;-66
2021/08/02 07:47:49;;;;;;;2.57;2.37;;;18.90;99.90;;;;;;4975634;28;20561;-66
2021/08/02 07:50:15;;;;;;;3.13;2.60;;;19.30;99.90;;;;;;4968930;28;20694;-67
2021/08/02 07:52:43;;;;;;;3.53;2.73;;;19.90;99.90;;;;;;4974229;28;20259;-65
2021/08/02 07:55:10;;;;;;;2.93;2.73;;;20.40;99.90;;;;;;4993927;28;20431;-68
2021/08/02 07:57:35;;;;;;;2.00;1.90;;;20.60;99.90;;;;;;4993516;28;20505;-66
2021/08/02 08:00:03;;;;;;;3.60;2.23;;;20.50;99.90;;;;;;4993663;28;20470;-67
2021/08/02 08:02:29;;;;;;;5.80;4.17;;;20.20;99.90;;;;;;4993945;28;20645;-67
2021/08/02 08:04:54;;;;;;;7.10;3.20;;;20.20;99.90;;;;;;4990342;28;20422;-67
2021/08/02 08:07:20;;;;;;;2.63;2.20;;;20.20;99.90;;;;;;4993974;28;20167;-67
2021/08/02 08:09:45;;;;;;;3.07;2.67;;;20.40;99.90;;;;;;4993303;28;20257;-68
2021/08/02 08:12:11;;;;;;;2.57;1.90;;;20.60;99.90;;;;;;4993688;28;20207;-66
2021/08/02 08:14:36;;;;;;;3.10;2.40;;;20.60;99.90;;;;;;4990327;28;20186;-67
2021/08/02 08:17:02;;;;;;;2.63;2.43;;;20.80;99.90;;;;;;4993861;28;20254;-67
2021/08/02 08:19:27;;;;;;;2.77;2.57;;;20.90;99.90;;;;;;4998009;28;20207;-67
2021/08/02 08:21:53;;;;;;;2.33;2.13;;;21.50;99.90;;;;;;4977977;28;20666;-67
2021/08/02 08:24:18;;;;;;;3.23;2.10;;;21.60;99.90;;;;;;4983988;28;20258;-67
2021/08/02 08:26:44;;;;;;;2.27;2.03;;;21.60;99.90;;;;;;4988234;28;20665;-66
2021/08/02 08:29:10;;;;;;;2.07;1.90;;;22.10;99.90;;;;;;4998305;28;20196;-68
2021/08/02 08:31:35;;;;;;;2.10;1.90;;;21.90;99.90;;;;;;4985267;28;20186;-67
2021/08/02 08:34:01;;;;;;;3.30;2.50;;;21.70;99.90;;;;;;4989758;28;20550;-67
2021/08/02 08:36:27;;;;;;;2.97;1.73;;;21.80;99.90;;;;;;4993510;28;20230;-67
2021/08/02 08:38:52;;;;;;;4.30;2.57;;;21.80;99.90;;;;;;4975527;28;20196;-68
2021/08/02 08:41:21;;;;;;;2.80;2.47;;;22.00;99.90;;;;;;4990354;28;20176;-65
2021/08/02 08:43:51;;;;;;;2.90;2.00;;;21.90;99.90;;;;;;4985174;28;20668;-66
2021/08/02 08:46:21;;;;;;;7.40;3.23;;;22.30;99.90;;;;;;4989756;28;20504;-66
2021/08/02 08:48:48;;;;;;;3.13;2.83;;;22.40;99.90;;;;;;4976876;28;20449;-66
2021/08/02 08:51:14;;;;;;;2.70;1.90;;;22.50;99.90;;;;;;4985318;28;20501;-66
2021/08/02 08:53:42;;;;;;;3.07;2.00;;;22.40;99.90;;;;;;4992590;28;20445;-66
2021/08/02 08:56:08;;;;;;;2.17;1.70;;;22.40;99.90;;;;;;4990219;28;20475;-66
2021/08/02 08:58:34;;;;;;;1.77;1.50;;;22.60;99.90;;;;;;4989883;28;20461;-66
2021/08/02 09:01:01;;;;;;;2.27;2.07;;;22.80;99.90;;;;;;4989785;28;20439;-66
2021/08/02 09:03:28;;;;;;;1.97;1.87;;;22.40;99.90;;;;;;4986448;28;20261;-66
2021/08/02 09:06:05;;;;;;;2.77;2.47;;;22.50;99.90;;;;;;4990270;28;20522;-66
2021/08/02 09:08:39;;;;;;;2.50;1.93;;;22.60;99.90;;;;;;4989282;28;20423;-65
2021/08/02 09:11:05;;;;;;;3.43;2.30;;;22.70;99.90;;;;;;4989551;28;20699;-66
2021/08/02 09:13:34;;;;;;;4.23;1.97;;;23.10;99.90;;;;;;4985892;28;20872;-66
2021/08/02 09:16:11;;;;;;;2.10;1.90;;;23.80;99.90;;;;;;4989937;28;20430;-66
2021/08/02 09:18:37;;;;;;;1.80;1.70;;;23.60;99.90;;;;;;4989456;28;20882;-66
2021/08/02 09:21:08;;;;;;;2.10;2.00;;;23.80;99.90;;;;;;4989305;28;20778;-66
2021/08/02 09:23:45;;;;;;;2.80;2.23;;;24.20;99.90;;;;;;4980176;28;20183;-66
2021/08/02 09:26:10;;;;;;;2.70;1.80;;;24.90;99.90;;;;;;4974608;28;20427;-66
2021/08/02 09:28:36;;;;;;;2.53;2.00;;;25.20;99.90;;;;;;4971994;28;20427;-66
2021/08/02 09:31:04;;;;;;;2.63;2.43;;;25.90;99.90;;;;;;4988026;28;20221;-64
2021/08/02 09:33:43;;;;;;;2.63;1.80;;;25.80;99.90;;;;;;4985900;28;20294;-64
2021/08/02 09:36:09;;;;;;;2.47;2.30;;;25.70;99.90;;;;;;4989548;28;20480;-64
2021/08/02 09:38:35;;;;;;;2.00;1.80;;;25.10;99.90;;;;;;4990080;28;20494;-64
2021/08/02 09:41:00;;;;;;;2.33;2.10;;;24.80;99.90;;;;;;4992287;28;20470;-65
2021/08/02 09:43:29;;;;;;;2.73;2.10;;;25.10;99.90;;;;;;4987476;28;20566;-64
2021/08/02 09:46:00;;;;;;;2.00;1.90;;;26.00;99.40;;;;;;4973279;28;20169;-65
2021/08/02 09:48:59;;;;;;;3.40;1.87;;;26.00;98.60;;;;;;4972720;28;20570;-63
2021/08/02 09:51:25;;;;;;;5.77;2.33;;;25.30;99.40;;;;;;4973074;28;20419;-64
2021/08/02 09:53:52;;;;;;;2.53;1.90;;;25.40;99.30;;;;;;4979260;28;20916;-64
2021/08/02 09:56:20;;;;;;;2.10;2.00;;;25.60;99.60;;;;;;4992533;28;20175;-64
2021/08/02 09:58:47;;;;;;;1.90;1.80;;;27.00;97.70;;;;;;4991789;28;20888;-66
2021/08/02 10:01:14;;;;;;;2.20;2.00;;;28.60;96.10;;;;;;4992247;28;20802;-66
2021/08/02 10:03:40;;;;;;;3.07;2.87;;;28.40;95.50;;;;;;4988681;28;21110;-66
2021/08/02 10:06:06;;;;;;;2.80;2.53;;;27.40;94.90;;;;;;4992518;28;20560;-67
2021/08/02 10:08:36;;;;;;;1.90;1.80;;;26.80;96.10;;;;;;4992121;28;20200;-66
2021/08/02 10:11:05;;;;;;;2.50;1.90;;;27.00;95.40;;;;;;4992408;28;20954;-67
2021/08/02 10:13:37;;;;;;;4.80;2.17;;;27.30;94.50;;;;;;4988969;28;20425;-67
2021/08/02 10:16:06;;;;;;;2.43;2.30;;;26.40;94.40;;;;;;4992171;28;20418;-67
2021/08/02 10:18:32;;;;;;;2.70;1.83;;;26.00;94.80;;;;;;4990249;28;20450;-65
2021/08/02 10:21:09;;;;;;;1.90;1.80;;;27.00;93.30;;;;;;4992243;28;20512;-66
2021/08/02 10:23:35;;;;;;;2.63;1.57;;;27.90;90.90;;;;;;4988902;28;20421;-66
2021/08/02 10:26:01;;;;;;;1.77;1.67;;;27.80;90.00;;;;;;4992386;28;20426;-66
2021/08/02 10:28:27;;;;;;;1.80;1.70;;;27.90;91.10;;;;;;5005422;28;20430;-68
2021/08/02 10:31:04;;;;;;;2.23;1.80;;;28.10;90.60;;;;;;5011828;28;20520;-67
2021/08/02 10:33:39;;;;;;;2.55;1.48;;;28.40;90.00;;;;;;5001350;28;20424;-68
2021/08/02 10:36:15;;;;;;;2.20;2.10;;;28.90;90.60;;;;;;4995976;28;20216;-69
2021/08/02 10:38:43;;;;;;;2.47;2.27;;;28.60;86.30;;;;;;4995053;28;20461;-67
2021/08/02 10:41:09;;;;;;;2.50;1.90;;;27.40;87.20;;;;;;4995760;28;20438;-66
2021/08/02 10:43:37;;;;;;;2.17;1.97;;;25.90;90.80;;;;;;4992036;28;20825;-68
2021/08/02 10:46:19;;;;;;;2.90;2.60;;;25.40;91.30;;;;;;4995629;28;20418;-68
2021/08/02 10:48:45;;;;;;;1.80;1.70;;;26.80;91.70;;;;;;4995479;28;20955;-67
2021/08/02 10:51:20;;;;;;;2.63;1.70;;;28.60;89.90;;;;;;4994898;28;20798;-65
2021/08/02 10:54:03;;;;;;;2.07;1.53;;;31.20;83.00;;;;;;4991864;28;20516;-65
2021/08/02 10:56:31;;;;;;;1.50;0.80;;;33.40;76.50;;;;;;4994698;28;20826;-65
2021/08/02 10:58:57;;;;;;;1.47;1.37;;;32.10;68.80;;;;;;4995166;28;20564;-64
2021/08/02 11:01:27;;;;;;;3.03;1.80;;;31.30;71.50;;;;;;4995391;28;20418;-65
2021/08/02 11:03:54;;;;;;;2.90;1.87;;;30.30;75.10;;;;;;4990977;28;20427;-64
2021/08/02 11:06:20;;;;;;;1.80;1.70;;;28.70;88.30;;;;;;4979569;28;20478;-65
2021/08/02 11:08:49;;;;;;;11.27;4.00;;;27.20;92.60;;;;;;4975531;28;20426;-64
2021/08/02 11:11:28;;;;;;;2.37;2.10;;;25.50;96.50;;;;;;4975938;28;20568;-65
2021/08/02 11:14:08;;;;;;;4.13;2.00;;;24.30;99.90;;;;;;4982343;28;20514;-64
2021/08/02 11:16:42;;;;;;;2.77;2.07;;;23.20;99.90;;;;;;4995459;28;20485;-65
2021/08/02 11:19:31;;;;;;;3.50;3.20;;;23.00;99.90;;;;;;4994497;28;20516;-65
2021/08/02 11:22:02;;;;;;;2.70;2.30;;;23.80;99.90;;;;;;4994579;28;20470;-65
2021/08/02 11:24:32;;;;;;;1.80;1.70;;;25.30;99.90;;;;;;4987099;28;20434;-64
2021/08/02 11:26:59;;;;;;;1.53;1.33;;;27.00;99.90;;;;;;4984245;28;20421;-65
2021/08/02 11:29:27;;;;;;;1.43;1.33;;;29.60;96.10;;;;;;4984004;28;20545;-65
2021/08/02 11:32:11;;;;;;;1.77;1.67;;;32.30;92.90;;;;;;4985907;28;20458;-65
2021/08/02 11:34:38;;;;;;;1.70;1.57;;;34.60;81.50;;;;;;4982512;28;20465;-65
2021/08/02 11:37:08;;;;;;;1.83;1.73;;;34.80;69.30;;;;;;4986261;28;20427;-65
2021/08/02 11:39:36;;;;;;;10.30;1.60;;;34.10;70.20;;;;;;4994540;28;20537;-64
2021/08/02 11:42:05;;;;;;;2.77;2.00;;;33.50;74.20;;;;;;4994691;28;20785;-65
2021/08/02 11:44:32;;;;;;;2.30;1.50;;;33.40;75.90;;;;;;4990669;28;20963;-64
2021/08/02 11:46:58;;;;;;;1.77;1.50;;;32.50;74.90;;;;;;4994664;28;20414;-67
2021/08/02 11:49:27;;;;;;;3.97;2.83;;;30.50;84.60;;;;;;4994234;28;20496;-67
2021/08/02 11:51:54;;;;;;;2.70;2.50;;;29.20;93.50;;;;;;4994119;28;20481;-67
2021/08/02 11:54:22;;;;;;;3.47;2.03;;;28.20;97.00;;;;;;4990832;28;20429;-67
2021/08/02 11:56:48;;;;;;;3.90;2.43;;;27.40;96.90;;;;;;4994416;28;20517;-65
2021/08/02 11:59:27;;;;;;;2.57;2.33;;;26.70;97.70;;;;;;4993892;28;21002;-66
2021/08/02 12:01:56;;;;;;;2.07;1.87;;;25.10;98.30;;;;;;4994341;28;20425;-67
2021/08/02 12:04:23;;;;;;;2.30;2.10;;;23.70;99.90;;;;;;4990512;28;20434;-67
2021/08/02 12:06:51;;;;;;;3.13;2.20;;;23.00;99.90;;;;;;4994205;28;20430;-67
2021/08/02 12:09:27;;;;;;;3.57;2.40;;;22.70;99.90;;;;;;4993698;28;20485;-66
2021/08/02 12:11:52;;;;;;;9.23;3.67;;;22.30;99.90;;;;;;4994234;28;20423;-69
2021/08/02 12:14:28;;;;;;;2.00;1.70;;;21.90;99.90;;;;;;4990292;28;20434;-67
2021/08/02 12:17:08;;;;;;;2.00;1.90;;;21.00;99.90;;;;;;4994049;28;20222;-66
2021/08/02 12:19:48;;;;;;;2.13;2.00;;;20.20;99.90;;;;;;4974178;28;20467;-66
2021/08/02 12:22:15;;;;;;;2.37;2.17;;;19.60;99.90;;;;;;4974557;28;20857;-66
2021/08/02 12:24:58;;;;;;;2.50;2.30;;;19.90;99.90;;;;;;4987415;28;20995;-67
2021/08/02 12:27:24;;;;;;;2.80;2.47;;;20.70;99.90;;;;;;4993541;28;20510;-66
2021/08/02 12:30:08;;;;;;;2.70;2.50;;;21.80;99.90;;;;;;4986058;28;20470;-65
2021/08/02 12:32:42;;;;;;;1.97;1.87;;;22.80;99.90;;;;;;4974462;28;20423;-67
2021/08/02 12:35:12;;;;;;;1.67;1.57;;;23.70;99.90;;;;;;4991410;28;21016;-66
2021/08/02 12:37:39;;;;;;;2.00;1.70;;;26.70;99.90;;;;;;4993643;28;20539;-67
2021/08/02 12:40:08;;;;;;;2.33;1.60;;;30.70;99.90;;;;;;4993270;28;20498;-67
2021/08/02 12:42:36;;;;;;;2.00;1.90;;;33.90;93.80;;;;;;4993488;28;20454;-67
2021/08/02 12:45:02;;;;;;;1.90;1.80;;;36.10;86.40;;;;;;4990095;28;20418;-64
2021/08/02 12:47:28;;;;;;;1.63;1.53;;;38.30;78.50;;;;;;4993565;28;20418;-63
2021/08/02 12:49:57;;;;;;;2.23;2.03;;;40.10;66.00;;;;;;4993062;28;20540;-65
2021/08/02 12:52:26;;;;;;;2.33;2.13;;;41.60;62.00;;;;;;4993286;28;20259;-65